sensor_id;sensor_type;location;lat;lon;timestamp;pressure;altitude;pressure_sealevel;temperature;humidity
977;BME280;477;51.436;7.292;2022-09-27T04:54:44;59986.63;;;-146.42;100.00
977;BME280;477;51.436;7.292;2022-09-27T04:57:14;59986.63;;;-146.42;100.00
977;BME280;477;51.436;7.292;2022-09-27T04:59:43;59986.63;;;-146.42;100.00
977;BME280;477;51.436;7.292;2022-09-27T05:02:11;59986.63;;;-146.42;100.00
977;BME280;477;51.436;7.292;2022-09-27T05:04:41;59986.63;;;-146.42;100.00
977;BME280;477;51.436;7.292;2022-09-27T05:07:09;59986.63;;;-146.42;100.00
977;BME280;477;51.436;7.292;2022-09-27T05:09:38;59986.63;;;-146.42;100.00
977;BME280;477;51.436;7.292;2022-09-27T05:12:08;59986.63;;;-146.42;100.00
977;BME280;477;51.436;7.292;2022-09-27T05:14:37;59986.63;;;-146.42;100.00
977;BME280;477;51.436;7.292;2022-09-27T05:17:05;59986.63;;;-146.42;100.00
977;BME280;477;51.436;7.292;2022-09-27T05:19:34;59986.63;;;-146.42;100.00
977;BME280;477;51.436;7.292;2022-09-27T05:22:04;59986.63;;;-146.42;100.00
977;BME280;477;51.436;7.292;2022-09-27T05:24:33;59986.63;;;-146.42;100.00
977;BME280;477;51.436;7.292;2022-09-27T05:27:02;59986.63;;;-146.42;100.00
977;BME280;477;51.436;7.292;2022-09-27T05:29:35;59986.63;;;-146.42;100.00
977;BME280;477;51.436;7.292;2022-09-27T05:32:04;59986.63;;;-146.42;100.00
977;BME280;477;51.436;7.292;2022-09-27T05:34:32;59986.63;;;-146.42;100.00
977;BME280;477;51.436;7.292;2022-09-27T05:37:01;59986.63;;;-146.42;100.00
977;BME280;477;51.436;7.292;2022-09-27T05:39:29;59986.63;;;-146.42;100.00
977;BME280;477;51.436;7.292;2022-09-27T05:41:58;59986.63;;;-146.42;100.00
977;BME280;477;51.436;7.292;2022-09-27T05:44:26;59986.63;;;-146.42;100.00
977;BME280;477;51.436;7.292;2022-09-27T05:46:56;59986.63;;;-146.42;100.00
977;BME280;477;51.436;7.292;2022-09-27T05:49:25;59986.63;;;-146.42;100.00
977;BME280;477;51.436;7.292;2022-09-27T05:51:54;59986.63;;;-146.42;100.00
977;BME280;477;51.436;7.292;2022-09-27T05:54:22;59986.63;;;-146.42;100.00
977;BME280;477;51.436;7.292;2022-09-27T05:56:54;59986.63;;;-146.42;100.00
977;BME280;477;51.436;7.292;2022-09-27T05:59:24;59986.63;;;-146.42;100.00
977;BME280;477;51.436;7.292;2022-09-27T06:01:53;59986.63;;;-146.42;100.00
977;BME280;477;51.436;7.292;2022-09-27T06:04:24;59986.63;;;-146.42;100.00
977;BME280;477;51.436;7.292;2022-09-27T06:06:52;59986.63;;;-146.42;100.00
977;BME280;477;51.436;7.292;2022-09-27T06:09:20;59986.63;;;-146.42;100.00
977;BME280;477;51.436;7.292;2022-09-27T06:11:49;59986.63;;;-146.42;100.00
977;BME280;477;51.436;7.292;2022-09-27T06:14:19;59986.63;;;-146.42;100.00
977;BME280;477;51.436;7.292;2022-09-27T06:16:48;59986.63;;;-146.42;100.00
977;BME280;477;51.436;7.292;2022-09-27T06:19:16;59986.63;;;-146.42;100.00
977;BME280;477;51.436;7.292;2022-09-27T06:21:48;59986.63;;;-146.42;100.00
977;BME280;477;51.436;7.292;2022-09-27T06:24:16;59986.63;;;-146.42;100.00
977;BME280;477;51.436;7.292;2022-09-27T06:26:45;59986.63;;;-146.42;100.00
977;BME280;477;51.436;7.292;2022-09-27T06:29:13;59986.63;;;-146.42;100.00
977;BME280;477;51.436;7.292;2022-09-27T06:31:42;59986.63;;;-146.42;100.00
977;BME280;477;51.436;7.292;2022-09-27T06:34:10;59986.63;;;-146.42;100.00
977;BME280;477;51.436;7.292;2022-09-27T06:36:41;59986.63;;;-146.42;100.00
977;BME280;477;51.436;7.292;2022-09-27T06:39:12;59986.63;;;-146.42;100.00
977;BME280;477;51.436;7.292;2022-09-27T06:41:41;59986.63;;;-146.42;100.00
977;BME280;477;51.436;7.292;2022-09-27T06:44:10;59986.63;;;-146.42;100.00
977;BME280;477;51.436;7.292;2022-09-27T06:46:39;59986.63;;;-146.42;100.00
977;BME280;477;51.436;7.292;2022-09-27T06:49:08;59986.63;;;-146.42;100.00
977;BME280;477;51.436;7.292;2022-09-27T06:51:37;59986.63;;;-146.42;100.00
977;BME280;477;51.436;7.292;2022-09-27T06:54:05;59986.63;;;-146.42;100.00
977;BME280;477;51.436;7.292;2022-09-27T06:56:35;59986.63;;;-146.42;100.00
977;BME280;477;51.436;7.292;2022-09-27T06:59:03;59986.63;;;-146.42;100.00
977;BME280;477;51.436;7.292;2022-09-27T07:01:49;59986.63;;;-146.42;100.00
977;BME280;477;51.436;7.292;2022-09-27T07:04:18;59986.63;;;-146.42;100.00
977;BME280;477;51.436;7.292;2022-09-27T07:06:47;59986.63;;;-146.42;100.00
977;BME280;477;51.436;7.292;2022-09-27T07:09:15;59986.63;;;-146.42;100.00
977;BME280;477;51.436;7.292;2022-09-27T07:11:45;59986.63;;;-146.42;100.00
977;BME280;477;51.436;7.292;2022-09-27T07:14:14;59986.63;;;-146.42;100.00
977;BME280;477;51.436;7.292;2022-09-27T07:16:44;59986.63;;;-146.42;100.00
977;BME280;477;51.436;7.292;2022-09-27T07:19:13;59986.63;;;-146.42;100.00
977;BME280;477;51.436;7.292;2022-09-27T07:21:41;59986.63;;;-146.42;100.00
977;BME280;477;51.436;7.292;2022-09-27T07:24:10;59986.63;;;-146.42;100.00
977;BME280;477;51.436;7.292;2022-09-27T07:26:38;59986.63;;;-146.42;100.00
977;BME280;477;51.436;7.292;2022-09-27T07:29:08;59986.63;;;-146.42;100.00
977;BME280;477;51.436;7.292;2022-09-27T07:31:37;59986.63;;;-146.42;100.00
977;BME280;477;51.436;7.292;2022-09-27T07:34:05;59986.63;;;-146.42;100.00
977;BME280;477;51.436;7.292;2022-09-27T07:36:34;59986.63;;;-146.42;100.00
977;BME280;477;51.436;7.292;2022-09-27T07:39:02;59986.63;;;-146.42;100.00
977;BME280;477;51.436;7.292;2022-09-27T07:41:31;59986.63;;;-146.42;100.00
977;BME280;477;51.436;7.292;2022-09-27T07:43:59;59986.63;;;-146.42;100.00
977;BME280;477;51.436;7.292;2022-09-27T07:46:30;59986.63;;;-146.42;100.00
977;BME280;477;51.436;7.292;2022-09-27T07:48:59;59986.63;;;-146.42;100.00
977;BME280;477;51.436;7.292;2022-09-27T07:51:28;59986.63;;;-146.42;100.00
977;BME280;477;51.436;7.292;2022-09-27T07:53:56;59986.63;;;-146.42;100.00
977;BME280;477;51.436;7.292;2022-09-27T07:56:25;59986.63;;;-146.42;100.00
977;BME280;477;51.436;7.292;2022-09-27T07:58:53;59986.63;;;-146.42;100.00
977;BME280;477;51.436;7.292;2022-09-27T08:01:22;59986.63;;;-146.42;100.00
977;BME280;477;51.436;7.292;2022-09-27T08:03:51;59986.63;;;-146.42;100.00
977;BME280;477;51.436;7.292;2022-09-27T08:06:20;59986.63;;;-146.42;100.00
977;BME280;477;51.436;7.292;2022-09-27T08:08:49;59986.63;;;-146.42;100.00
977;BME280;477;51.436;7.292;2022-09-27T08:11:17;59986.63;;;-146.42;100.00
977;BME280;477;51.436;7.292;2022-09-27T08:13:46;59986.63;;;-146.42;100.00
977;BME280;477;51.436;7.292;2022-09-27T08:16:18;59986.63;;;-146.42;100.00
977;BME280;477;51.436;7.292;2022-09-27T08:18:48;59986.63;;;-146.42;100.00
977;BME280;477;51.436;7.292;2022-09-27T08:21:17;59986.63;;;-146.42;100.00
977;BME280;477;51.436;7.292;2022-09-27T08:23:46;59986.63;;;-146.42;100.00
977;BME280;477;51.436;7.292;2022-09-27T08:26:14;59986.63;;;-146.42;100.00
977;BME280;477;51.436;7.292;2022-09-27T08:28:43;59986.63;;;-146.42;100.00
977;BME280;477;51.436;7.292;2022-09-27T08:31:11;59986.63;;;-146.42;100.00
977;BME280;477;51.436;7.292;2022-09-27T08:33:39;59986.63;;;-146.42;100.00
977;BME280;477;51.436;7.292;2022-09-27T08:36:11;59986.63;;;-146.42;100.00
977;BME280;477;51.436;7.292;2022-09-27T08:38:41;59986.63;;;-146.42;100.00
977;BME280;477;51.436;7.292;2022-09-27T08:41:15;59986.63;;;-146.42;100.00
977;BME280;477;51.436;7.292;2022-09-27T08:44:04;59986.63;;;-146.42;100.00
977;BME280;477;51.436;7.292;2022-09-27T08:46:44;59986.63;;;-146.42;100.00
977;BME280;477;51.436;7.292;2022-09-27T08:49:21;59986.63;;;-146.42;100.00
977;BME280;477;51.436;7.292;2022-09-27T08:51:53;59986.63;;;-146.42;100.00
977;BME280;477;51.436;7.292;2022-09-27T08:54:26;59986.63;;;-146.42;100.00
977;BME280;477;51.436;7.292;2022-09-27T08:57:00;59986.63;;;-146.42;100.00
977;BME280;477;51.436;7.292;2022-09-27T08:59:36;59986.63;;;-146.42;100.00
977;BME280;477;51.436;7.292;2022-09-27T09:02:16;59986.63;;;-146.42;100.00
977;BME280;477;51.436;7.292;2022-09-27T09:04:48;59986.63;;;-146.42;100.00
977;BME280;477;51.436;7.292;2022-09-27T09:07:34;59986.63;;;-146.42;100.00
977;BME280;477;51.436;7.292;2022-09-27T09:10:26;59986.63;;;-146.42;100.00
977;BME280;477;51.436;7.292;2022-09-27T09:13:25;59986.63;;;-146.42;100.00
977;BME280;477;51.436;7.292;2022-09-27T09:16:06;59986.63;;;-146.42;100.00
977;BME280;477;51.436;7.292;2022-09-27T09:18:52;59986.63;;;-146.42;100.00
977;BME280;477;51.436;7.292;2022-09-27T09:21:33;59986.63;;;-146.42;100.00
977;BME280;477;51.436;7.292;2022-09-27T09:24:17;59986.63;;;-146.42;100.00
977;BME280;477;51.436;7.292;2022-09-27T09:26:58;59986.63;;;-146.42;100.00
977;BME280;477;51.436;7.292;2022-09-27T09:29:51;59986.63;;;-146.42;100.00
977;BME280;477;51.436;7.292;2022-09-27T09:32:33;59986.63;;;-146.42;100.00
977;BME280;477;51.436;7.292;2022-09-27T09:35:10;59986.63;;;-146.42;100.00
977;BME280;477;51.436;7.292;2022-09-27T09:37:46;59986.63;;;-146.42;100.00
977;BME280;477;51.436;7.292;2022-09-27T09:40:20;59986.63;;;-146.42;100.00
977;BME280;477;51.436;7.292;2022-09-27T09:42:56;59986.63;;;-146.42;100.00
977;BME280;477;51.436;7.292;2022-09-27T09:45:29;98636.03;;;11.60;100.00
977;BME280;477;51.436;7.292;2022-09-27T09:48:04;98636.03;;;11.60;100.00
977;BME280;477;51.436;7.292;2022-09-27T09:50:40;98636.03;;;11.60;100.00
977;BME280;477;51.436;7.292;2022-09-27T09:53:15;98636.03;;;11.60;100.00
977;BME280;477;51.436;7.292;2022-09-27T09:55:50;98636.03;;;11.60;100.00
977;BME280;477;51.436;7.292;2022-09-27T09:58:26;98636.03;;;11.60;100.00
977;BME280;477;51.436;7.292;2022-09-27T10:01:04;98636.03;;;11.60;100.00
977;BME280;477;51.436;7.292;2022-09-27T10:03:39;98965.84;;;11.05;100.00
977;BME280;477;51.436;7.292;2022-09-27T10:06:09;98965.84;;;11.05;100.00
977;BME280;477;51.436;7.292;2022-09-27T10:08:38;98968.31;;;11.19;100.00
977;BME280;477;51.436;7.292;2022-09-27T10:11:19;98968.31;;;11.19;100.00
977;BME280;477;51.436;7.292;2022-09-27T10:13:51;98968.31;;;11.19;100.00
977;BME280;477;51.436;7.292;2022-09-27T10:16:21;59986.63;;;11.19;100.00
977;BME280;477;51.436;7.292;2022-09-27T10:18:56;98968.31;;;11.19;100.00
977;BME280;477;51.436;7.292;2022-09-27T10:21:28;98954.13;;;11.23;100.00
977;BME280;477;51.436;7.292;2022-09-27T10:24:09;98969.78;;;11.11;100.00
977;BME280;477;51.436;7.292;2022-09-27T10:26:46;98956.56;;;11.14;100.00
977;BME280;477;51.436;7.292;2022-09-27T10:29:23;98958.91;;;11.17;100.00
977;BME280;477;51.436;7.292;2022-09-27T10:31:52;98960.56;;;11.07;100.00
977;BME280;477;51.436;7.292;2022-09-27T10:34:26;98960.56;;;11.07;100.00
977;BME280;477;51.436;7.292;2022-09-27T10:37:17;98960.56;;;11.07;100.00
977;BME280;477;51.436;7.292;2022-09-27T10:39:48;98960.56;;;11.07;100.00
977;BME280;477;51.436;7.292;2022-09-27T10:42:29;98955.56;;;11.28;100.00
977;BME280;477;51.436;7.292;2022-09-27T10:45:25;98955.56;;;11.28;100.00
977;BME280;477;51.436;7.292;2022-09-27T10:47:55;98951.78;;;11.32;100.00
977;BME280;477;51.436;7.292;2022-09-27T10:50:26;98962.69;;;11.37;100.00
977;BME280;477;51.436;7.292;2022-09-27T10:53:18;98944.41;;;11.26;100.00
977;BME280;477;51.436;7.292;2022-09-27T10:55:49;98942.81;;;11.36;100.00
977;BME280;477;51.436;7.292;2022-09-27T10:58:25;98942.81;;;11.36;100.00
977;BME280;477;51.436;7.292;2022-09-27T11:00:59;98942.81;;;11.36;100.00
977;BME280;477;51.436;7.292;2022-09-27T11:03:31;98942.81;;;11.36;100.00
977;BME280;477;51.436;7.292;2022-09-27T11:06:23;98942.81;;;11.36;100.00
977;BME280;477;51.436;7.292;2022-09-27T11:08:55;98942.81;;;11.36;100.00
977;BME280;477;51.436;7.292;2022-09-27T11:11:36;98920.53;;;11.67;100.00
977;BME280;477;51.436;7.292;2022-09-27T11:14:16;98923.00;;;11.68;100.00
977;BME280;477;51.436;7.292;2022-09-27T11:17:09;98923.00;;;11.68;100.00
977;BME280;477;51.436;7.292;2022-09-27T11:20:24;98923.00;;;11.68;100.00
977;BME280;477;51.436;7.292;2022-09-27T11:23:33;98919.00;;;11.75;100.00
977;BME280;477;51.436;7.292;2022-09-27T11:26:28;98913.53;;;11.79;100.00
977;BME280;477;51.436;7.292;2022-09-27T11:29:17;98913.53;;;11.79;100.00
977;BME280;477;51.436;7.292;2022-09-27T11:32:17;98913.53;;;11.79;100.00
977;BME280;477;51.436;7.292;2022-09-27T11:35:04;98913.53;;;11.79;100.00
977;BME280;477;51.436;7.292;2022-09-27T11:37:45;98913.53;;;11.79;100.00
977;BME280;477;51.436;7.292;2022-09-27T11:40:27;98913.53;;;11.79;100.00
977;BME280;477;51.436;7.292;2022-09-27T11:43:16;98913.53;;;11.79;100.00
977;BME280;477;51.436;7.292;2022-09-27T11:45:57;98913.53;;;11.79;100.00
977;BME280;477;51.436;7.292;2022-09-27T11:49:00;98913.53;;;11.79;100.00
977;BME280;477;51.436;7.292;2022-09-27T11:54:58;59986.63;;;-146.42;100.00
977;BME280;477;51.436;7.292;2022-09-27T11:57:37;59986.63;;;-146.42;100.00
977;BME280;477;51.436;7.292;2022-09-27T12:00:20;59986.63;;;-146.42;100.00
977;BME280;477;51.436;7.292;2022-09-27T12:03:28;59986.63;;;-146.42;100.00
977;BME280;477;51.436;7.292;2022-09-27T12:06:24;59986.63;;;-146.42;100.00
977;BME280;477;51.436;7.292;2022-09-27T12:09:05;59986.63;;;-146.42;100.00
977;BME280;477;51.436;7.292;2022-09-27T12:11:40;59986.63;;;-146.42;100.00
977;BME280;477;51.436;7.292;2022-09-27T12:14:21;59986.63;;;-146.42;100.00
977;BME280;477;51.436;7.292;2022-09-27T12:16:53;59986.63;;;-146.42;100.00
977;BME280;477;51.436;7.292;2022-09-27T12:20:26;59986.63;;;-146.42;100.00
977;BME280;477;51.436;7.292;2022-09-27T12:23:58;59986.63;;;-146.42;100.00
977;BME280;477;51.436;7.292;2022-09-27T12:27:34;59986.63;;;-146.42;100.00
977;BME280;477;51.436;7.292;2022-09-27T12:30:10;59986.63;;;-146.42;100.00
977;BME280;477;51.436;7.292;2022-09-27T12:32:50;59986.63;;;-146.42;100.00
977;BME280;477;51.436;7.292;2022-09-27T12:35:25;59986.63;;;-146.42;100.00
977;BME280;477;51.436;7.292;2022-09-27T12:38:04;59986.63;;;-146.42;100.00
977;BME280;477;51.436;7.292;2022-09-27T12:40:37;59986.63;;;-146.42;100.00
977;BME280;477;51.436;7.292;2022-09-27T12:43:21;68163.94;;;-146.42;100.00
977;BME280;477;51.436;7.292;2022-09-27T12:48:45;59986.63;;;-146.42;100.00
977;BME280;477;51.436;7.292;2022-09-27T12:51:19;59986.63;;;-146.42;100.00
977;BME280;477;51.436;7.292;2022-09-27T12:57:34;59986.63;;;-146.42;100.00
977;BME280;477;51.436;7.292;2022-09-27T13:00:11;59986.63;;;-146.42;100.00
977;BME280;477;51.436;7.292;2022-09-27T13:06:51;98936.22;;;11.19;100.00
977;BME280;477;51.436;7.292;2022-09-27T13:12:53;75556.31;;;11.19;100.00
977;BME280;477;51.436;7.292;2022-09-27T13:15:27;98936.22;;;-146.42;100.00
977;BME280;477;51.436;7.292;2022-09-27T13:17:58;98938.00;;;11.18;100.00
977;BME280;477;51.436;7.292;2022-09-27T13:20:43;98936.91;;;11.45;100.00
977;BME280;477;51.436;7.292;2022-09-27T13:23:51;59986.63;;;-146.42;100.00
977;BME280;477;51.436;7.292;2022-09-27T13:26:46;98936.91;;;11.45;100.00
977;BME280;477;51.436;7.292;2022-09-27T13:29:27;75524.66;;;-146.42;100.00
977;BME280;477;51.436;7.292;2022-09-27T13:32:17;98936.91;;;11.45;100.00
977;BME280;477;51.436;7.292;2022-09-27T13:34:50;98936.91;;;-146.42;100.00
977;BME280;477;51.436;7.292;2022-09-27T13:37:45;59986.63;;;-146.42;100.00
977;BME280;477;51.436;7.292;2022-09-27T13:40:30;59986.63;;;-146.42;100.00
977;BME280;477;51.436;7.292;2022-09-27T13:43:34;59986.63;;;-146.42;100.00
977;BME280;477;51.436;7.292;2022-09-27T13:46:17;59986.63;;;-146.42;100.00
977;BME280;477;51.436;7.292;2022-09-27T13:48:52;98936.91;;;11.45;100.00
977;BME280;477;51.436;7.292;2022-09-27T13:51:34;75524.97;;;-146.42;100.00
977;BME280;477;51.436;7.292;2022-09-27T13:56:53;59986.63;;;-146.42;100.00
977;BME280;477;51.436;7.292;2022-09-27T13:59:31;59986.63;;;-146.42;100.00
977;BME280;477;51.436;7.292;2022-09-27T14:02:15;59986.63;;;-146.42;100.00
977;BME280;477;51.436;7.292;2022-09-27T14:04:49;98936.91;;;-146.42;100.00
977;BME280;477;51.436;7.292;2022-09-27T14:07:21;98936.91;;;-99.51;100.00
977;BME280;477;51.436;7.292;2022-09-27T14:09:54;123067.00;;;11.45;100.00
977;BME280;477;51.436;7.292;2022-09-27T14:12:31;59986.63;;;-146.42;100.00
977;BME280;477;51.436;7.292;2022-09-27T14:15:03;113258.97;;;-146.42;100.00
977;BME280;477;51.436;7.292;2022-09-27T14:20:05;59986.63;;;-146.42;100.00
977;BME280;477;51.436;7.292;2022-09-27T14:22:37;59986.63;;;-146.42;100.00
977;BME280;477;51.436;7.292;2022-09-27T14:25:16;123067.00;;;11.45;100.00
977;BME280;477;51.436;7.292;2022-09-27T14:27:46;98917.72;;;11.81;100.00
977;BME280;477;51.436;7.292;2022-09-27T14:30:18;98924.50;;;11.95;100.00
977;BME280;477;51.436;7.292;2022-09-27T14:32:50;122199.28;;;11.95;100.00
977;BME280;477;51.436;7.292;2022-09-27T14:35:22;122199.28;;;11.95;100.00
977;BME280;477;51.436;7.292;2022-09-27T14:38:11;59986.63;;;11.95;100.00
977;BME280;477;51.436;7.292;2022-09-27T14:41:03;113258.44;;;-146.42;100.00
977;BME280;477;51.436;7.292;2022-09-27T14:43:34;98924.50;;;11.95;100.00
977;BME280;477;51.436;7.292;2022-09-27T14:46:06;59986.63;;;-146.42;100.00
977;BME280;477;51.436;7.292;2022-09-27T14:48:38;59986.63;;;-146.42;100.00
977;BME280;477;51.436;7.292;2022-09-27T14:51:19;59986.63;;;-146.42;100.00
977;BME280;477;51.436;7.292;2022-09-27T14:53:52;59986.63;;;-146.42;100.00
977;BME280;477;51.436;7.292;2022-09-27T14:56:30;59986.63;;;-146.42;100.00
977;BME280;477;51.436;7.292;2022-09-27T14:59:03;59986.63;;;-146.42;100.00
977;BME280;477;51.436;7.292;2022-09-27T15:01:33;59986.63;;;-146.42;100.00
977;BME280;477;51.436;7.292;2022-09-27T15:04:12;59986.63;;;-146.42;100.00
977;BME280;477;51.436;7.292;2022-09-27T15:06:41;59986.63;;;-146.42;100.00
977;BME280;477;51.436;7.292;2022-09-27T15:09:13;59986.63;;;-146.42;100.00
977;BME280;477;51.436;7.292;2022-09-27T15:11:45;59986.63;;;-146.42;100.00
977;BME280;477;51.436;7.292;2022-09-27T15:14:19;59986.63;;;-146.42;100.00
977;BME280;477;51.436;7.292;2022-09-27T15:16:51;59986.63;;;-146.42;100.00
977;BME280;477;51.436;7.292;2022-09-27T15:19:25;59986.63;;;-146.42;100.00
977;BME280;477;51.436;7.292;2022-09-27T15:21:55;59986.63;;;-146.42;100.00
977;BME280;477;51.436;7.292;2022-09-27T15:24:45;59986.63;;;-146.42;100.00
977;BME280;477;51.436;7.292;2022-09-27T15:27:16;59986.63;;;-146.42;100.00
977;BME280;477;51.436;7.292;2022-09-27T15:29:49;59986.63;;;-146.42;100.00
977;BME280;477;51.436;7.292;2022-09-27T15:32:21;59986.63;;;-146.42;100.00
977;BME280;477;51.436;7.292;2022-09-27T15:34:53;59986.63;;;-146.42;100.00
977;BME280;477;51.436;7.292;2022-09-27T15:37:26;59986.63;;;-146.42;100.00
977;BME280;477;51.436;7.292;2022-09-27T15:40:15;59986.63;;;-146.42;100.00
977;BME280;477;51.436;7.292;2022-09-27T15:42:55;59986.63;;;-146.42;100.00
977;BME280;477;51.436;7.292;2022-09-27T15:45:29;59986.63;;;-146.42;100.00
977;BME280;477;51.436;7.292;2022-09-27T15:48:10;59986.63;;;-146.42;100.00
977;BME280;477;51.436;7.292;2022-09-27T15:50:43;59986.63;;;-146.42;100.00
977;BME280;477;51.436;7.292;2022-09-27T15:53:42;59986.63;;;-146.42;100.00
977;BME280;477;51.436;7.292;2022-09-27T15:56:13;59986.63;;;-146.42;100.00
977;BME280;477;51.436;7.292;2022-09-27T15:58:43;59986.63;;;-146.42;100.00
977;BME280;477;51.436;7.292;2022-09-27T16:01:19;59986.63;;;-146.42;100.00
977;BME280;477;51.436;7.292;2022-09-27T16:03:48;59986.63;;;-146.42;100.00
977;BME280;477;51.436;7.292;2022-09-27T16:06:20;59986.63;;;-146.42;100.00
977;BME280;477;51.436;7.292;2022-09-27T16:08:51;59986.63;;;-146.42;100.00
977;BME280;477;51.436;7.292;2022-09-27T16:11:20;59986.63;;;-146.42;100.00
977;BME280;477;51.436;7.292;2022-09-27T16:13:49;59986.63;;;-146.42;100.00
977;BME280;477;51.436;7.292;2022-09-27T16:16:20;59986.63;;;-146.42;100.00
977;BME280;477;51.436;7.292;2022-09-27T16:18:49;59986.63;;;-146.42;100.00
977;BME280;477;51.436;7.292;2022-09-27T16:21:19;59986.63;;;-146.42;100.00
977;BME280;477;51.436;7.292;2022-09-27T16:23:48;59986.63;;;-146.42;100.00
977;BME280;477;51.436;7.292;2022-09-27T16:26:17;59986.63;;;-146.42;100.00
977;BME280;477;51.436;7.292;2022-09-27T16:28:46;59986.63;;;-146.42;100.00
977;BME280;477;51.436;7.292;2022-09-27T16:31:17;59986.63;;;-146.42;100.00
977;BME280;477;51.436;7.292;2022-09-27T16:33:47;59986.63;;;-146.42;100.00
977;BME280;477;51.436;7.292;2022-09-27T16:36:18;59986.63;;;-146.42;100.00
977;BME280;477;51.436;7.292;2022-09-27T16:38:48;59986.63;;;-146.42;100.00
977;BME280;477;51.436;7.292;2022-09-27T16:41:20;59986.63;;;-146.42;100.00
977;BME280;477;51.436;7.292;2022-09-27T16:43:49;59986.63;;;-146.42;100.00
977;BME280;477;51.436;7.292;2022-09-27T16:46:18;59986.63;;;-146.42;100.00
977;BME280;477;51.436;7.292;2022-09-27T16:48:48;59986.63;;;-146.42;100.00
977;BME280;477;51.436;7.292;2022-09-27T16:51:20;59986.63;;;-146.42;100.00
977;BME280;477;51.436;7.292;2022-09-27T16:54:07;59986.63;;;-146.42;100.00
977;BME280;477;51.436;7.292;2022-09-27T16:56:36;59986.63;;;-146.42;100.00
977;BME280;477;51.436;7.292;2022-09-27T16:59:05;59986.63;;;-146.42;100.00
977;BME280;477;51.436;7.292;2022-09-27T17:01:33;59986.63;;;-146.42;100.00
977;BME280;477;51.436;7.292;2022-09-27T17:04:03;59986.63;;;-146.42;100.00
977;BME280;477;51.436;7.292;2022-09-27T17:06:35;59986.63;;;-146.42;100.00
977;BME280;477;51.436;7.292;2022-09-27T17:09:04;59986.63;;;-146.42;100.00
977;BME280;477;51.436;7.292;2022-09-27T17:11:33;59986.63;;;-146.42;100.00
977;BME280;477;51.436;7.292;2022-09-27T17:14:02;59986.63;;;-146.42;100.00
977;BME280;477;51.436;7.292;2022-09-27T17:16:31;59986.63;;;-146.42;100.00
977;BME280;477;51.436;7.292;2022-09-27T17:19:03;59986.63;;;-146.42;100.00
977;BME280;477;51.436;7.292;2022-09-27T17:21:31;59986.63;;;-146.42;100.00
977;BME280;477;51.436;7.292;2022-09-27T17:24:14;59986.63;;;-146.42;100.00
977;BME280;477;51.436;7.292;2022-09-27T17:26:55;59986.63;;;-146.42;100.00
977;BME280;477;51.436;7.292;2022-09-27T17:29:23;59986.63;;;-146.42;100.00
977;BME280;477;51.436;7.292;2022-09-27T17:31:52;59986.63;;;-146.42;100.00
977;BME280;477;51.436;7.292;2022-09-27T17:34:22;59986.63;;;-146.42;100.00
977;BME280;477;51.436;7.292;2022-09-27T17:36:51;59986.63;;;-146.42;100.00
977;BME280;477;51.436;7.292;2022-09-27T17:39:21;59986.63;;;-146.42;100.00
977;BME280;477;51.436;7.292;2022-09-27T17:41:50;59986.63;;;-146.42;100.00
977;BME280;477;51.436;7.292;2022-09-27T17:44:20;59986.63;;;-146.42;100.00
977;BME280;477;51.436;7.292;2022-09-27T17:46:50;59986.63;;;-146.42;100.00
977;BME280;477;51.436;7.292;2022-09-27T17:49:40;59986.63;;;-146.42;100.00
977;BME280;477;51.436;7.292;2022-09-27T17:52:32;59986.63;;;-146.42;100.00
977;BME280;477;51.436;7.292;2022-09-27T17:56:01;59986.63;;;-146.42;100.00
977;BME280;477;51.436;7.292;2022-09-27T17:59:17;98924.50;;;11.95;100.00
977;BME280;477;51.436;7.292;2022-09-27T18:02:45;59986.63;;;-146.42;100.00
977;BME280;477;51.436;7.292;2022-09-27T18:06:13;59986.63;;;-146.42;100.00
977;BME280;477;51.436;7.292;2022-09-27T18:09:42;59986.63;;;-146.42;100.00
977;BME280;477;51.436;7.292;2022-09-27T18:12:26;100424.56;;;-146.42;100.00
977;BME280;477;51.436;7.292;2022-09-27T18:15:59;59986.63;;;-146.42;100.00
977;BME280;477;51.436;7.292;2022-09-27T18:18:34;98924.50;;;11.95;100.00
977;BME280;477;51.436;7.292;2022-09-27T18:21:14;98924.50;;;11.95;100.00
977;BME280;477;51.436;7.292;2022-09-27T18:24:09;78545.13;;;-146.42;100.00
977;BME280;477;51.436;7.292;2022-09-27T18:27:38;59986.63;;;-146.42;100.00
977;BME280;477;51.436;7.292;2022-09-27T18:31:09;59986.63;;;-146.42;100.00
977;BME280;477;51.436;7.292;2022-09-27T18:34:39;59986.63;;;-146.42;100.00
977;BME280;477;51.436;7.292;2022-09-27T18:38:06;59986.63;;;-146.42;100.00
977;BME280;477;51.436;7.292;2022-09-27T18:41:34;59986.63;;;-146.42;100.00
977;BME280;477;51.436;7.292;2022-09-27T18:45:04;59986.63;;;-146.42;100.00
977;BME280;477;51.436;7.292;2022-09-27T18:48:32;59986.63;;;-146.42;100.00
977;BME280;477;51.436;7.292;2022-09-27T18:52:05;59986.63;;;-146.42;100.00
977;BME280;477;51.436;7.292;2022-09-27T18:55:35;59986.63;;;-146.42;100.00
977;BME280;477;51.436;7.292;2022-09-27T18:59:03;59986.63;;;-146.42;100.00
977;BME280;477;51.436;7.292;2022-09-27T19:01:38;59986.63;;;-146.42;100.00
977;BME280;477;51.436;7.292;2022-09-27T19:05:12;59986.63;;;-146.42;100.00
977;BME280;477;51.436;7.292;2022-09-27T19:08:10;59986.63;;;11.96;100.00
977;BME280;477;51.436;7.292;2022-09-27T19:11:34;59986.63;;;-146.42;100.00
977;BME280;477;51.436;7.292;2022-09-27T19:15:04;59986.63;;;-146.42;100.00
977;BME280;477;51.436;7.292;2022-09-27T19:17:56;59986.63;;;-146.42;100.00
977;BME280;477;51.436;7.292;2022-09-27T19:20:28;59986.63;;;-146.42;100.00
977;BME280;477;51.436;7.292;2022-09-27T19:23:06;59986.63;;;-146.42;100.00
977;BME280;477;51.436;7.292;2022-09-27T19:26:36;59986.63;;;-146.42;100.00
977;BME280;477;51.436;7.292;2022-09-27T19:30:06;59986.63;;;-146.42;100.00
977;BME280;477;51.436;7.292;2022-09-27T19:33:34;59986.63;;;-146.42;100.00
977;BME280;477;51.436;7.292;2022-09-27T19:37:04;59986.63;;;-146.42;100.00